sensor_id;sensor_type;location;lat;lon;timestamp;pressure;altitude;pressure_sealevel;temperature;humidity
34297;BME280;20564;42.902;25.336;2023-05-11T00:01:51;97515.41;;;7.67;94.49
34297;BME280;20564;42.902;25.336;2023-05-11T00:04:19;97519.22;;;7.63;94.99
34297;BME280;20564;42.902;25.336;2023-05-11T00:06:47;97517.16;;;7.56;94.80
34297;BME280;20564;42.902;25.336;2023-05-11T00:09:14;97512.84;;;7.43;96.64
34297;BME280;20564;42.902;25.336;2023-05-11T00:11:41;97519.03;;;7.42;96.37
34297;BME280;20564;42.902;25.336;2023-05-11T00:14:08;97522.13;;;7.47;96.48
34297;BME280;20564;42.902;25.336;2023-05-11T00:16:36;97513.81;;;7.42;95.08
34297;BME280;20564;42.902;25.336;2023-05-11T00:19:03;97520.03;;;7.29;95.18
34297;BME280;20564;42.902;25.336;2023-05-11T00:21:31;97525.94;;;7.19;94.81
34297;BME280;20564;42.902;25.336;2023-05-11T00:23:58;97533.50;;;7.11;95.30
34297;BME280;20564;42.902;25.336;2023-05-11T00:26:25;97528.53;;;6.95;95.30
34297;BME280;20564;42.902;25.336;2023-05-11T00:28:53;97537.16;;;6.85;96.35
34297;BME280;20564;42.902;25.336;2023-05-11T00:31:20;97532.75;;;6.85;96.92
34297;BME280;20564;42.902;25.336;2023-05-11T00:33:47;97530.56;;;6.79;96.84
34297;BME280;20564;42.902;25.336;2023-05-11T00:36:14;97534.13;;;6.78;96.41
34297;BME280;20564;42.902;25.336;2023-05-11T00:38:42;97533.09;;;6.68;96.92
34297;BME280;20564;42.902;25.336;2023-05-11T00:41:09;97537.81;;;6.63;98.23
34297;BME280;20564;42.902;25.336;2023-05-11T00:43:36;97534.66;;;6.58;99.53
34297;BME280;20564;42.902;25.336;2023-05-11T00:46:04;97524.44;;;6.55;98.36
34297;BME280;20564;42.902;25.336;2023-05-11T00:48:31;97524.44;;;6.42;97.76
34297;BME280;20564;42.902;25.336;2023-05-11T00:50:59;97525.50;;;6.39;99.06
34297;BME280;20564;42.902;25.336;2023-05-11T00:53:30;97527.38;;;6.37;99.65
34297;BME280;20564;42.902;25.336;2023-05-11T00:56:00;97526.97;;;6.31;99.19
34297;BME280;20564;42.902;25.336;2023-05-11T00:58:29;97530.75;;;6.26;100.00
34297;BME280;20564;42.902;25.336;2023-05-11T01:00:57;97535.44;;;6.21;100.00
34297;BME280;20564;42.902;25.336;2023-05-11T01:03:24;97537.22;;;6.21;100.00
34297;BME280;20564;42.902;25.336;2023-05-11T01:08:55;97533.22;;;6.02;100.00
34297;BME280;20564;42.902;25.336;2023-05-11T01:11:33;97531.13;;;5.95;100.00
34297;BME280;20564;42.902;25.336;2023-05-11T01:14:13;97535.91;;;5.88;100.00
34297;BME280;20564;42.902;25.336;2023-05-11T01:16:45;97532.38;;;5.89;100.00
34297;BME280;20564;42.902;25.336;2023-05-11T01:19:45;97536.75;;;5.89;100.00
34297;BME280;20564;42.902;25.336;2023-05-11T01:25:09;97523.34;;;5.68;100.00
34297;BME280;20564;42.902;25.336;2023-05-11T01:27:55;97527.41;;;5.72;100.00
34297;BME280;20564;42.902;25.336;2023-05-11T01:30:35;97532.13;;;5.67;100.00
34297;BME280;20564;42.902;25.336;2023-05-11T01:33:10;97530.00;;;5.59;100.00
34297;BME280;20564;42.902;25.336;2023-05-11T01:35:44;97529.16;;;5.59;100.00
34297;BME280;20564;42.902;25.336;2023-05-11T01:38:18;97536.34;;;5.42;100.00
34297;BME280;20564;42.902;25.336;2023-05-11T01:40:53;97531.75;;;5.46;100.00
34297;BME280;20564;42.902;25.336;2023-05-11T01:43:30;97532.25;;;5.38;100.00
34297;BME280;20564;42.902;25.336;2023-05-11T01:46:02;97525.25;;;5.39;100.00
34297;BME280;20564;42.902;25.336;2023-05-11T01:48:36;97528.69;;;5.39;100.00
34297;BME280;20564;42.902;25.336;2023-05-11T01:51:08;97532.63;;;5.32;100.00
34297;BME280;20564;42.902;25.336;2023-05-11T01:53:37;97529.09;;;5.33;100.00
34297;BME280;20564;42.902;25.336;2023-05-11T01:56:08;97532.00;;;5.28;100.00
34297;BME280;20564;42.902;25.336;2023-05-11T01:58:40;97529.72;;;5.37;100.00
34297;BME280;20564;42.902;25.336;2023-05-11T02:01:10;97535.06;;;5.35;100.00
34297;BME280;20564;42.902;25.336;2023-05-11T02:03:38;97531.16;;;5.28;100.00
34297;BME280;20564;42.902;25.336;2023-05-11T02:06:12;97528.44;;;5.29;100.00
34297;BME280;20564;42.902;25.336;2023-05-11T02:08:44;97526.34;;;5.22;100.00
34297;BME280;20564;42.902;25.336;2023-05-11T02:11:13;97530.91;;;5.18;100.00
34297;BME280;20564;42.902;25.336;2023-05-11T02:13:46;97526.34;;;5.22;100.00
34297;BME280;20564;42.902;25.336;2023-05-11T02:16:18;97524.84;;;5.18;100.00
34297;BME280;20564;42.902;25.336;2023-05-11T02:18:46;97517.34;;;5.13;100.00
34297;BME280;20564;42.902;25.336;2023-05-11T02:21:26;97517.41;;;5.12;100.00
34297;BME280;20564;42.902;25.336;2023-05-11T02:23:55;97513.97;;;5.11;100.00
34297;BME280;20564;42.902;25.336;2023-05-11T02:26:26;97513.75;;;5.01;100.00
34297;BME280;20564;42.902;25.336;2023-05-11T02:28:54;97513.63;;;5.03;100.00
34297;BME280;20564;42.902;25.336;2023-05-11T02:31:28;97510.19;;;5.02;100.00
34297;BME280;20564;42.902;25.336;2023-05-11T02:34:03;97513.38;;;4.93;100.00
34297;BME280;20564;42.902;25.336;2023-05-11T02:36:32;97525.56;;;4.93;100.00
34297;BME280;20564;42.902;25.336;2023-05-11T02:39:07;97530.59;;;4.96;100.00
34297;BME280;20564;42.902;25.336;2023-05-11T02:41:38;97530.78;;;4.93;100.00
34297;BME280;20564;42.902;25.336;2023-05-11T02:44:10;97529.03;;;4.93;100.00
34297;BME280;20564;42.902;25.336;2023-05-11T02:46:39;97523.91;;;4.92;100.00
34297;BME280;20564;42.902;25.336;2023-05-11T02:49:11;97528.47;;;4.88;100.00
34297;BME280;20564;42.902;25.336;2023-05-11T02:51:44;97535.56;;;4.86;100.00
34297;BME280;20564;42.902;25.336;2023-05-11T02:54:17;97532.75;;;4.89;100.00
34297;BME280;20564;42.902;25.336;2023-05-11T02:56:48;97533.31;;;4.94;100.00
34297;BME280;20564;42.902;25.336;2023-05-11T02:59:25;97531.84;;;4.90;100.00
34297;BME280;20564;42.902;25.336;2023-05-11T03:01:58;97535.19;;;4.92;100.00
34297;BME280;20564;42.902;25.336;2023-05-11T03:04:26;97533.69;;;4.88;100.00
34297;BME280;20564;42.902;25.336;2023-05-11T03:06:53;97529.78;;;4.95;100.00
34297;BME280;20564;42.902;25.336;2023-05-11T03:09:21;97533.34;;;4.80;100.00
34297;BME280;20564;42.902;25.336;2023-05-11T03:11:49;97524.97;;;4.75;100.00
34297;BME280;20564;42.902;25.336;2023-05-11T03:14:16;97533.38;;;4.66;100.00
34297;BME280;20564;42.902;25.336;2023-05-11T03:16:43;97534.84;;;4.70;100.00
34297;BME280;20564;42.902;25.336;2023-05-11T03:19:15;97524.97;;;4.60;100.00
34297;BME280;20564;42.902;25.336;2023-05-11T03:21:43;97531.06;;;4.61;100.00
34297;BME280;20564;42.902;25.336;2023-05-11T03:24:11;97528.53;;;4.59;100.00
34297;BME280;20564;42.902;25.336;2023-05-11T03:26:45;97529.53;;;4.57;100.00
34297;BME280;20564;42.902;25.336;2023-05-11T03:29:14;97532.78;;;4.60;100.00
34297;BME280;20564;42.902;25.336;2023-05-11T03:31:42;97529.53;;;4.57;100.00
34297;BME280;20564;42.902;25.336;2023-05-11T03:34:09;97533.75;;;4.59;100.00
34297;BME280;20564;42.902;25.336;2023-05-11T03:36:38;97536.16;;;4.63;100.00
34297;BME280;20564;42.902;25.336;2023-05-11T03:39:07;97534.47;;;4.76;100.00
34297;BME280;20564;42.902;25.336;2023-05-11T03:41:35;97534.66;;;4.87;100.00
34297;BME280;20564;42.902;25.336;2023-05-11T03:44:05;97531.06;;;5.02;100.00
34297;BME280;20564;42.902;25.336;2023-05-11T03:46:35;97527.28;;;5.21;100.00
34297;BME280;20564;42.902;25.336;2023-05-11T03:49:04;97524.69;;;5.33;100.00
34297;BME280;20564;42.902;25.336;2023-05-11T03:51:33;97525.69;;;5.45;100.00
34297;BME280;20564;42.902;25.336;2023-05-11T03:54:01;97531.56;;;5.62;100.00
34297;BME280;20564;42.902;25.336;2023-05-11T03:56:28;97522.59;;;5.66;100.00
34297;BME280;20564;42.902;25.336;2023-05-11T03:58:55;97522.31;;;5.83;100.00
34297;BME280;20564;42.902;25.336;2023-05-11T04:01:22;97516.84;;;6.00;100.00
34297;BME280;20564;42.902;25.336;2023-05-11T04:03:52;97508.56;;;6.07;100.00
34297;BME280;20564;42.902;25.336;2023-05-11T04:06:19;97521.22;;;6.25;100.00
34297;BME280;20564;42.902;25.336;2023-05-11T04:08:46;97517.34;;;6.31;100.00
34297;BME280;20564;42.902;25.336;2023-05-11T04:11:12;97524.22;;;6.58;100.00
34297;BME280;20564;42.902;25.336;2023-05-11T04:13:40;97518.00;;;6.84;100.00
34297;BME280;20564;42.902;25.336;2023-05-11T04:16:07;97513.34;;;7.24;98.16
34297;BME280;20564;42.902;25.336;2023-05-11T04:18:34;97520.31;;;7.61;89.07
34297;BME280;20564;42.902;25.336;2023-05-11T04:21:01;97511.00;;;8.03;90.32
34297;BME280;20564;42.902;25.336;2023-05-11T04:23:27;97518.59;;;8.53;84.31
34297;BME280;20564;42.902;25.336;2023-05-11T04:25:55;97509.25;;;8.82;77.81
34297;BME280;20564;42.902;25.336;2023-05-11T04:28:22;97505.50;;;9.18;72.11
34297;BME280;20564;42.902;25.336;2023-05-11T04:30:53;97504.94;;;9.68;73.88
34297;BME280;20564;42.902;25.336;2023-05-11T04:33:21;97510.34;;;10.29;71.24
34297;BME280;20564;42.902;25.336;2023-05-11T04:35:49;97502.09;;;10.74;65.03
34297;BME280;20564;42.902;25.336;2023-05-11T04:38:20;97501.53;;;11.30;64.54
34297;BME280;20564;42.902;25.336;2023-05-11T04:40:48;97494.19;;;11.82;62.15
34297;BME280;20564;42.902;25.336;2023-05-11T04:43:16;97489.81;;;12.20;59.13
34297;BME280;20564;42.902;25.336;2023-05-11T04:45:47;97492.44;;;12.67;59.30
34297;BME280;20564;42.902;25.336;2023-05-11T04:48:15;97492.63;;;13.11;57.31
34297;BME280;20564;42.902;25.336;2023-05-11T04:50:45;97492.63;;;13.39;56.74
34297;BME280;20564;42.902;25.336;2023-05-11T04:53:12;97486.34;;;13.75;56.83
34297;BME280;20564;42.902;25.336;2023-05-11T04:55:43;97483.34;;;13.96;52.84
34297;BME280;20564;42.902;25.336;2023-05-11T04:58:12;97485.97;;;14.14;51.56
34297;BME280;20564;42.902;25.336;2023-05-11T05:00:39;97476.63;;;14.28;50.92
34297;BME280;20564;42.902;25.336;2023-05-11T05:03:06;97484.50;;;14.46;47.31
34297;BME280;20564;42.902;25.336;2023-05-11T05:05:34;97482.84;;;14.45;48.75
34297;BME280;20564;42.902;25.336;2023-05-11T05:08:00;97476.00;;;14.34;47.50
34297;BME280;20564;42.902;25.336;2023-05-11T05:10:28;97484.75;;;14.53;47.42
34297;BME280;20564;42.902;25.336;2023-05-11T05:12:55;97484.94;;;14.59;46.42
34297;BME280;20564;42.902;25.336;2023-05-11T05:15:22;97487.16;;;14.46;46.31
34297;BME280;20564;42.902;25.336;2023-05-11T05:17:49;97489.28;;;14.68;48.29
34297;BME280;20564;42.902;25.336;2023-05-11T05:20:17;97476.53;;;14.72;47.78
34297;BME280;20564;42.902;25.336;2023-05-11T05:22:44;97480.34;;;14.69;46.13
34297;BME280;20564;42.902;25.336;2023-05-11T05:25:13;97483.56;;;14.55;47.48
34297;BME280;20564;42.902;25.336;2023-05-11T05:27:39;97480.28;;;14.53;47.93
34297;BME280;20564;42.902;25.336;2023-05-11T05:30:07;97474.09;;;14.79;46.20
34297;BME280;20564;42.902;25.336;2023-05-11T05:32:37;97483.88;;;14.78;46.86
34297;BME280;20564;42.902;25.336;2023-05-11T05:35:04;97479.91;;;14.82;45.95
34297;BME280;20564;42.902;25.336;2023-05-11T05:37:31;97492.03;;;14.85;47.26
34297;BME280;20564;42.902;25.336;2023-05-11T05:40:12;97487.16;;;14.72;46.70
34297;BME280;20564;42.902;25.336;2023-05-11T05:42:47;97494.22;;;14.98;47.08
34297;BME280;20564;42.902;25.336;2023-05-11T05:45:14;97493.78;;;15.10;46.04
34297;BME280;20564;42.902;25.336;2023-05-11T05:47:42;97484.69;;;15.21;46.39
34297;BME280;20564;42.902;25.336;2023-05-11T05:50:13;97489.19;;;15.29;46.09
34297;BME280;20564;42.902;25.336;2023-05-11T05:52:40;97484.19;;;15.17;46.45
34297;BME280;20564;42.902;25.336;2023-05-11T05:55:07;97487.09;;;14.98;46.55
34297;BME280;20564;42.902;25.336;2023-05-11T05:57:41;97488.97;;;15.14;46.48
34297;BME280;20564;42.902;25.336;2023-05-11T06:00:15;97491.94;;;15.11;47.24
34297;BME280;20564;42.902;25.336;2023-05-11T06:02:43;97486.66;;;15.19;45.98
34297;BME280;20564;42.902;25.336;2023-05-11T06:05:10;97480.53;;;15.35;46.22
34297;BME280;20564;42.902;25.336;2023-05-11T06:07:37;97483.19;;;15.27;45.54
34297;BME280;20564;42.902;25.336;2023-05-11T06:10:07;97485.50;;;15.22;45.74
34297;BME280;20564;42.902;25.336;2023-05-11T06:12:40;97482.22;;;15.36;45.71
34297;BME280;20564;42.902;25.336;2023-05-11T06:15:08;97492.66;;;15.37;46.53
34297;BME280;20564;42.902;25.336;2023-05-11T06:17:35;97494.69;;;15.43;45.80
34297;BME280;20564;42.902;25.336;2023-05-11T06:20:03;97498.28;;;15.42;47.17
34297;BME280;20564;42.902;25.336;2023-05-11T06:22:33;97498.09;;;15.19;47.62
34297;BME280;20564;42.902;25.336;2023-05-11T06:25:00;97502.78;;;15.42;46.89
34297;BME280;20564;42.902;25.336;2023-05-11T06:27:27;97498.34;;;15.59;46.82
34297;BME280;20564;42.902;25.336;2023-05-11T06:29:54;97499.88;;;15.70;46.21
34297;BME280;20564;42.902;25.336;2023-05-11T06:32:21;97493.91;;;15.92;46.09
34297;BME280;20564;42.902;25.336;2023-05-11T06:34:48;97496.56;;;15.84;47.00
34297;BME280;20564;42.902;25.336;2023-05-11T06:37:15;97498.19;;;16.18;47.44
34297;BME280;20564;42.902;25.336;2023-05-11T06:39:46;97503.16;;;16.37;46.93
34297;BME280;20564;42.902;25.336;2023-05-11T06:42:13;97499.97;;;16.42;46.11
34297;BME280;20564;42.902;25.336;2023-05-11T06:44:41;97503.88;;;16.70;47.25
34297;BME280;20564;42.902;25.336;2023-05-11T06:47:08;97498.41;;;16.80;45.84
34297;BME280;20564;42.902;25.336;2023-05-11T06:49:35;97511.19;;;16.84;45.88
34297;BME280;20564;42.902;25.336;2023-05-11T06:52:02;97504.81;;;17.02;44.75
34297;BME280;20564;42.902;25.336;2023-05-11T06:54:29;97504.09;;;17.16;44.87
34297;BME280;20564;42.902;25.336;2023-05-11T06:56:56;97501.06;;;17.50;43.77
34297;BME280;20564;42.902;25.336;2023-05-11T06:59:24;97504.72;;;17.49;41.95
34297;BME280;20564;42.902;25.336;2023-05-11T07:01:52;97510.56;;;17.14;42.11
34297;BME280;20564;42.902;25.336;2023-05-11T07:04:19;97512.50;;;17.28;42.02
34297;BME280;20564;42.902;25.336;2023-05-11T07:06:46;97512.53;;;17.20;40.58
34297;BME280;20564;42.902;25.336;2023-05-11T07:09:13;97513.22;;;17.14;41.47
34297;BME280;20564;42.902;25.336;2023-05-11T07:11:41;97510.56;;;17.14;39.99
34297;BME280;20564;42.902;25.336;2023-05-11T07:14:11;97511.34;;;16.91;40.41
34297;BME280;20564;42.902;25.336;2023-05-11T07:16:40;97504.66;;;16.95;40.30
34297;BME280;20564;42.902;25.336;2023-05-11T07:19:09;97516.13;;;17.04;40.37
34297;BME280;20564;42.902;25.336;2023-05-11T07:21:36;97521.56;;;17.10;38.95
34297;BME280;20564;42.902;25.336;2023-05-11T07:24:04;97522.25;;;17.04;40.57
34297;BME280;20564;42.902;25.336;2023-05-11T07:26:36;97517.81;;;17.28;39.88
34297;BME280;20564;42.902;25.336;2023-05-11T07:29:04;97512.22;;;17.15;40.74
34297;BME280;20564;42.902;25.336;2023-05-11T07:31:31;97519.75;;;17.03;40.84
34297;BME280;20564;42.902;25.336;2023-05-11T07:33:59;97522.84;;;17.15;40.04
34297;BME280;20564;42.902;25.336;2023-05-11T07:36:26;97529.88;;;17.07;40.80
34297;BME280;20564;42.902;25.336;2023-05-11T07:38:54;97512.75;;;17.10;40.36
34297;BME280;20564;42.902;25.336;2023-05-11T07:41:21;97522.25;;;17.04;39.44
34297;BME280;20564;42.902;25.336;2023-05-11T07:43:53;97513.75;;;17.40;39.92
34297;BME280;20564;42.902;25.336;2023-05-11T07:46:20;97516.81;;;17.60;39.44
34297;BME280;20564;42.902;25.336;2023-05-11T07:48:47;97507.75;;;17.77;38.93
34297;BME280;20564;42.902;25.336;2023-05-11T07:51:23;97516.41;;;17.40;39.54
34297;BME280;20564;42.902;25.336;2023-05-11T07:53:50;97518.22;;;17.71;39.03
34297;BME280;20564;42.902;25.336;2023-05-11T07:56:18;97514.75;;;17.93;39.71
34297;BME280;20564;42.902;25.336;2023-05-11T07:58:45;97513.56;;;18.19;39.26
34297;BME280;20564;42.902;25.336;2023-05-11T08:01:12;97509.94;;;18.12;38.27
34297;BME280;20564;42.902;25.336;2023-05-11T08:03:41;97514.75;;;17.93;37.79
34297;BME280;20564;42.902;25.336;2023-05-11T08:06:09;97509.41;;;18.16;38.73
34297;BME280;20564;42.902;25.336;2023-05-11T08:08:38;97502.03;;;18.03;38.92
34297;BME280;20564;42.902;25.336;2023-05-11T08:11:08;97514.56;;;18.18;38.72
34297;BME280;20564;42.902;25.336;2023-05-11T08:13:38;97513.53;;;17.73;38.52
34297;BME280;20564;42.902;25.336;2023-05-11T08:16:11;97513.53;;;17.81;37.74
34297;BME280;20564;42.902;25.336;2023-05-11T08:18:45;97511.16;;;17.86;38.80
34297;BME280;20564;42.902;25.336;2023-05-11T08:21:13;97509.84;;;17.82;37.60
34297;BME280;20564;42.902;25.336;2023-05-11T08:23:48;97516.75;;;17.68;37.91
34297;BME280;20564;42.902;25.336;2023-05-11T08:26:17;97517.47;;;17.31;38.33
34297;BME280;20564;42.902;25.336;2023-05-11T08:28:45;97509.22;;;17.49;38.92
34297;BME280;20564;42.902;25.336;2023-05-11T08:31:14;97510.88;;;17.73;39.56
34297;BME280;20564;42.902;25.336;2023-05-11T08:33:41;97507.38;;;18.03;39.46
34297;BME280;20564;42.902;25.336;2023-05-11T08:36:09;97508.31;;;18.11;39.44
34297;BME280;20564;42.902;25.336;2023-05-11T08:38:42;97504.38;;;17.98;38.99
34297;BME280;20564;42.902;25.336;2023-05-11T08:41:25;97504.25;;;18.15;38.42
34297;BME280;20564;42.902;25.336;2023-05-11T08:43:54;97516.22;;;18.19;39.08
34297;BME280;20564;42.902;25.336;2023-05-11T08:46:34;97513.25;;;17.68;39.37
34297;BME280;20564;42.902;25.336;2023-05-11T08:49:06;97518.38;;;18.00;39.91
34297;BME280;20564;42.902;25.336;2023-05-11T08:51:34;97518.97;;;18.11;39.85
34297;BME280;20564;42.902;25.336;2023-05-11T08:54:06;97506.72;;;18.39;39.05
34297;BME280;20564;42.902;25.336;2023-05-11T08:56:35;97510.00;;;18.41;38.73
34297;BME280;20564;42.902;25.336;2023-05-11T08:59:07;97505.38;;;18.35;37.88
34297;BME280;20564;42.902;25.336;2023-05-11T09:01:39;97512.88;;;18.17;38.13
34297;BME280;20564;42.902;25.336;2023-05-11T09:04:10;97496.03;;;18.01;37.82
34297;BME280;20564;42.902;25.336;2023-05-11T09:06:42;97493.88;;;17.82;38.77
34297;BME280;20564;42.902;25.336;2023-05-11T09:09:10;97503.56;;;17.75;38.60
34297;BME280;20564;42.902;25.336;2023-05-11T09:11:39;97501.56;;;18.00;40.04
34297;BME280;20564;42.902;25.336;2023-05-11T09:14:08;97500.47;;;18.09;39.23
34297;BME280;20564;42.902;25.336;2023-05-11T09:16:38;97505.56;;;18.19;39.99
34297;BME280;20564;42.902;25.336;2023-05-11T09:19:18;97518.84;;;18.04;40.94
34297;BME280;20564;42.902;25.336;2023-05-11T09:21:46;97512.22;;;17.77;39.81
34297;BME280;20564;42.902;25.336;2023-05-11T09:24:19;97509.38;;;17.78;40.66
34297;BME280;20564;42.902;25.336;2023-05-11T09:26:46;97505.84;;;17.86;40.00
34297;BME280;20564;42.902;25.336;2023-05-11T09:29:25;97503.84;;;17.88;40.90
34297;BME280;20564;42.902;25.336;2023-05-11T09:31:56;97503.38;;;18.37;40.53
34297;BME280;20564;42.902;25.336;2023-05-11T09:34:24;97507.91;;;18.51;40.28
34297;BME280;20564;42.902;25.336;2023-05-11T09:36:53;97502.56;;;17.76;39.39
34297;BME280;20564;42.902;25.336;2023-05-11T09:39:35;97510.09;;;17.95;40.55
34297;BME280;20564;42.902;25.336;2023-05-11T09:42:23;97500.69;;;17.85;41.42
34297;BME280;20564;42.902;25.336;2023-05-11T09:44:51;97510.66;;;18.05;41.16
34297;BME280;20564;42.902;25.336;2023-05-11T09:47:22;97502.16;;;17.87;40.78
34297;BME280;20564;42.902;25.336;2023-05-11T09:49:50;97493.38;;;18.01;41.14
34297;BME280;20564;42.902;25.336;2023-05-11T09:52:18;97493.75;;;18.36;41.72
34297;BME280;20564;42.902;25.336;2023-05-11T09:54:50;97503.22;;;18.68;40.53
34297;BME280;20564;42.902;25.336;2023-05-11T09:57:25;97495.88;;;18.55;40.50
34297;BME280;20564;42.902;25.336;2023-05-11T09:59:58;97494.06;;;18.71;40.20
34297;BME280;20564;42.902;25.336;2023-05-11T10:02:31;97506.06;;;18.52;40.02
34297;BME280;20564;42.902;25.336;2023-05-11T10:05:00;97501.56;;;18.52;40.51
34297;BME280;20564;42.902;25.336;2023-05-11T10:07:31;97496.31;;;18.44;39.42
34297;BME280;20564;42.902;25.336;2023-05-11T10:10:04;97482.53;;;18.41;40.25
34297;BME280;20564;42.902;25.336;2023-05-11T10:12:35;97483.72;;;18.53;39.70
34297;BME280;20564;42.902;25.336;2023-05-11T10:15:15;97487.41;;;18.67;39.39
34297;BME280;20564;42.902;25.336;2023-05-11T10:17:45;97484.81;;;18.29;38.92
34297;BME280;20564;42.902;25.336;2023-05-11T10:20:13;97474.78;;;18.31;39.36
34297;BME280;20564;42.902;25.336;2023-05-11T10:22:41;97471.94;;;18.18;38.95
34297;BME280;20564;42.902;25.336;2023-05-11T10:25:17;97477.09;;;18.34;39.07
34297;BME280;20564;42.902;25.336;2023-05-11T10:27:47;97476.25;;;17.81;39.23
34297;BME280;20564;42.902;25.336;2023-05-11T10:30:18;97479.03;;;18.02;40.13
34297;BME280;20564;42.902;25.336;2023-05-11T10:32:51;97478.84;;;17.89;39.61
34297;BME280;20564;42.902;25.336;2023-05-11T10:35:21;97484.34;;;17.88;40.40
34297;BME280;20564;42.902;25.336;2023-05-11T10:37:50;97472.66;;;18.12;40.25
34297;BME280;20564;42.902;25.336;2023-05-11T10:40:22;97475.16;;;18.28;39.45
34297;BME280;20564;42.902;25.336;2023-05-11T10:43:13;97476.53;;;18.53;39.73
34297;BME280;20564;42.902;25.336;2023-05-11T10:51:32;97473.63;;;18.93;38.73
34297;BME280;20564;42.902;25.336;2023-05-11T10:54:12;97464.81;;;18.92;37.47
34297;BME280;20564;42.902;25.336;2023-05-11T11:02:13;97473.63;;;18.78;38.43
34297;BME280;20564;42.902;25.336;2023-05-11T11:04:48;97466.81;;;18.61;37.98
34297;BME280;20564;42.902;25.336;2023-05-11T11:07:17;97473.81;;;18.62;37.57
34297;BME280;20564;42.902;25.336;2023-05-11T11:10:05;97462.69;;;18.43;37.99
34297;BME280;20564;42.902;25.336;2023-05-11T11:12:37;97467.34;;;18.41;39.15
34297;BME280;20564;42.902;25.336;2023-05-11T11:15:14;97458.56;;;17.88;39.26
34297;BME280;20564;42.902;25.336;2023-05-11T11:17:46;97463.22;;;17.86;39.23
34297;BME280;20564;42.902;25.336;2023-05-11T11:20:49;97460.41;;;18.02;40.07
34297;BME280;20564;42.902;25.336;2023-05-11T11:23:54;97453.16;;;17.96;38.42
34297;BME280;20564;42.902;25.336;2023-05-11T11:26:44;97460.72;;;18.07;39.53
34297;BME280;20564;42.902;25.336;2023-05-11T11:29:09;97455.94;;;18.18;38.62
34297;BME280;20564;42.902;25.336;2023-05-11T11:31:38;97448.59;;;18.49;39.00
34297;BME280;20564;42.902;25.336;2023-05-11T11:42:19;97449.25;;;18.96;39.15
34297;BME280;20564;42.902;25.336;2023-05-11T11:45:38;97435.78;;;19.04;39.11
34297;BME280;20564;42.902;25.336;2023-05-11T11:48:13;97437.69;;;19.25;38.52
34297;BME280;20564;42.902;25.336;2023-05-11T11:50:46;97432.47;;;19.17;39.01
34297;BME280;20564;42.902;25.336;2023-05-11T11:56:38;97415.84;;;19.58;37.99
34297;BME280;20564;42.902;25.336;2023-05-11T11:59:06;97426.28;;;19.52;39.18
34297;BME280;20564;42.902;25.336;2023-05-11T12:01:39;97417.97;;;19.26;37.74
34297;BME280;20564;42.902;25.336;2023-05-11T12:06:57;97427.66;;;19.12;39.11
34297;BME280;20564;42.902;25.336;2023-05-11T12:09:27;97422.53;;;19.11;38.57
34297;BME280;20564;42.902;25.336;2023-05-11T12:11:57;97416.09;;;19.20;38.80
34297;BME280;20564;42.902;25.336;2023-05-11T12:14:34;97423.25;;;18.83;37.74
34297;BME280;20564;42.902;25.336;2023-05-11T12:17:04;97422.38;;;18.97;39.25
34297;BME280;20564;42.902;25.336;2023-05-11T12:19:34;97419.72;;;18.97;39.57
34297;BME280;20564;42.902;25.336;2023-05-11T12:22:02;97419.66;;;19.12;39.11
34297;BME280;20564;42.902;25.336;2023-05-11T12:24:30;97408.97;;;19.27;38.92
34297;BME280;20564;42.902;25.336;2023-05-11T12:27:01;97414.44;;;19.40;38.86
34297;BME280;20564;42.902;25.336;2023-05-11T12:29:29;97416.94;;;19.06;38.06
34297;BME280;20564;42.902;25.336;2023-05-11T12:32:01;97400.06;;;18.69;38.60
34297;BME280;20564;42.902;25.336;2023-05-11T12:34:41;97403.66;;;19.12;39.56
34297;BME280;20564;42.902;25.336;2023-05-11T12:37:13;97397.63;;;19.03;38.36
34297;BME280;20564;42.902;25.336;2023-05-11T12:39:41;97388.00;;;19.24;39.50
34297;BME280;20564;42.902;25.336;2023-05-11T12:42:17;97378.09;;;19.39;38.64
34297;BME280;20564;42.902;25.336;2023-05-11T12:44:45;97378.59;;;19.49;38.76
34297;BME280;20564;42.902;25.336;2023-05-11T12:47:16;97375.13;;;19.56;38.57
34297;BME280;20564;42.902;25.336;2023-05-11T12:49:46;97376.41;;;19.81;39.39
34297;BME280;20564;42.902;25.336;2023-05-11T12:52:40;97378.63;;;20.06;37.71
34297;BME280;20564;42.902;25.336;2023-05-11T12:55:08;97372.91;;;20.09;36.99
34297;BME280;20564;42.902;25.336;2023-05-11T12:57:39;97371.53;;;19.91;37.12
34297;BME280;20564;42.902;25.336;2023-05-11T13:00:12;97368.66;;;19.86;37.60
34297;BME280;20564;42.902;25.336;2023-05-11T13:03:04;97373.44;;;19.97;37.31
34297;BME280;20564;42.902;25.336;2023-05-11T13:05:32;97374.38;;;20.18;38.09
34297;BME280;20564;42.902;25.336;2023-05-11T13:08:07;97366.34;;;20.11;37.83
34297;BME280;20564;42.902;25.336;2023-05-11T13:10:44;97364.78;;;19.95;38.43
34297;BME280;20564;42.902;25.336;2023-05-11T13:13:30;97371.94;;;19.88;39.84
34297;BME280;20564;42.902;25.336;2023-05-11T13:15:58;97367.50;;;19.74;38.79
34297;BME280;20564;42.902;25.336;2023-05-11T13:18:27;97371.34;;;19.43;38.84
34297;BME280;20564;42.902;25.336;2023-05-11T13:21:08;97374.44;;;19.47;40.12
34297;BME280;20564;42.902;25.336;2023-05-11T13:23:52;97372.97;;;19.23;40.15
34297;BME280;20564;42.902;25.336;2023-05-11T13:26:25;97375.03;;;19.21;40.15
34297;BME280;20564;42.902;25.336;2023-05-11T13:28:55;97366.28;;;19.27;40.12
34297;BME280;20564;42.902;25.336;2023-05-11T13:31:47;97364.44;;;19.56;40.16
34297;BME280;20564;42.902;25.336;2023-05-11T13:34:16;97365.59;;;19.89;40.00
34297;BME280;20564;42.902;25.336;2023-05-11T13:36:44;97365.06;;;20.07;38.69
34297;BME280;20564;42.902;25.336;2023-05-11T13:39:13;97367.19;;;20.12;39.86
34297;BME280;20564;42.902;25.336;2023-05-11T13:41:45;97374.09;;;19.78;39.18